sensor_id;sensor_type;location;lat;lon;timestamp;temperature;humidity
12115;DHT22;6121;49.810;6.418;2023-01-29T00:00:07;0.80;99.90
12115;DHT22;6121;49.810;6.418;2023-01-29T00:02:38;0.80;99.90
12115;DHT22;6121;49.810;6.418;2023-01-29T00:05:05;1.00;99.90
12115;DHT22;6121;49.810;6.418;2023-01-29T00:07:31;1.20;99.90
12115;DHT22;6121;49.810;6.418;2023-01-29T00:10:16;1.00;99.90
12115;DHT22;6121;49.810;6.418;2023-01-29T00:12:42;0.90;99.90
12115;DHT22;6121;49.810;6.418;2023-01-29T00:15:08;0.80;99.90
12115;DHT22;6121;49.810;6.418;2023-01-29T00:17:33;1.00;99.90
12115;DHT22;6121;49.810;6.418;2023-01-29T00:19:59;1.20;99.90
12115;DHT22;6121;49.810;6.418;2023-01-29T00:22:29;0.90;99.90
12115;DHT22;6121;49.810;6.418;2023-01-29T00:24:54;0.90;99.90
12115;DHT22;6121;49.810;6.418;2023-01-29T00:27:20;0.90;99.90
12115;DHT22;6121;49.810;6.418;2023-01-29T00:29:47;1.00;99.90
12115;DHT22;6121;49.810;6.418;2023-01-29T00:32:33;0.90;99.90
12115;DHT22;6121;49.810;6.418;2023-01-29T00:34:58;0.70;99.90
12115;DHT22;6121;49.810;6.418;2023-01-29T00:37:24;0.80;99.90
12115;DHT22;6121;49.810;6.418;2023-01-29T00:39:50;0.80;99.90
12115;DHT22;6121;49.810;6.418;2023-01-29T00:42:16;0.90;99.90
12115;DHT22;6121;49.810;6.418;2023-01-29T00:45:00;0.80;99.90
12115;DHT22;6121;49.810;6.418;2023-01-29T00:47:26;1.10;99.90
12115;DHT22;6121;49.810;6.418;2023-01-29T00:49:56;0.90;99.90
12115;DHT22;6121;49.810;6.418;2023-01-29T00:52:22;1.00;99.90
12115;DHT22;6121;49.810;6.418;2023-01-29T00:54:49;1.00;99.90
12115;DHT22;6121;49.810;6.418;2023-01-29T00:57:15;1.00;99.90
12115;DHT22;6121;49.810;6.418;2023-01-29T00:59:40;1.00;99.90
12115;DHT22;6121;49.810;6.418;2023-01-29T01:02:07;1.00;99.90
12115;DHT22;6121;49.810;6.418;2023-01-29T01:04:51;1.00;99.90
12115;DHT22;6121;49.810;6.418;2023-01-29T01:07:17;0.80;99.90
12115;DHT22;6121;49.810;6.418;2023-01-29T01:09:43;0.90;99.90
12115;DHT22;6121;49.810;6.418;2023-01-29T01:12:28;0.70;99.90
12115;DHT22;6121;49.810;6.418;2023-01-29T01:14:54;0.70;99.90
12115;DHT22;6121;49.810;6.418;2023-01-29T01:17:20;0.80;99.90
12115;DHT22;6121;49.810;6.418;2023-01-29T01:19:46;0.90;99.90
12115;DHT22;6121;49.810;6.418;2023-01-29T01:22:12;0.80;99.90
12115;DHT22;6121;49.810;6.418;2023-01-29T01:24:38;0.80;99.90
12115;DHT22;6121;49.810;6.418;2023-01-29T01:27:04;0.90;99.90
12115;DHT22;6121;49.810;6.418;2023-01-29T01:29:30;0.90;99.90
12115;DHT22;6121;49.810;6.418;2023-01-29T01:31:56;1.00;99.90
12115;DHT22;6121;49.810;6.418;2023-01-29T01:34:22;1.00;99.90
12115;DHT22;6121;49.810;6.418;2023-01-29T01:36:48;0.60;99.90
12115;DHT22;6121;49.810;6.418;2023-01-29T01:39:14;0.60;99.90
12115;DHT22;6121;49.810;6.418;2023-01-29T01:41:41;0.70;99.90
12115;DHT22;6121;49.810;6.418;2023-01-29T01:44:48;0.70;99.90
12115;DHT22;6121;49.810;6.418;2023-01-29T01:46:52;0.40;99.90
12115;DHT22;6121;49.810;6.418;2023-01-29T01:49:19;0.40;99.90
12115;DHT22;6121;49.810;6.418;2023-01-29T01:51:48;0.60;99.90
12115;DHT22;6121;49.810;6.418;2023-01-29T01:54:23;0.60;99.90
12115;DHT22;6121;49.810;6.418;2023-01-29T01:56:56;0.60;99.90
12115;DHT22;6121;49.810;6.418;2023-01-29T01:59:31;0.60;99.90
12115;DHT22;6121;49.810;6.418;2023-01-29T02:01:58;0.60;99.90
12115;DHT22;6121;49.810;6.418;2023-01-29T02:04:45;0.50;99.90
12115;DHT22;6121;49.810;6.418;2023-01-29T02:07:32;0.60;99.90
12115;DHT22;6121;49.810;6.418;2023-01-29T02:10:17;0.70;99.90
12115;DHT22;6121;49.810;6.418;2023-01-29T02:12:44;0.60;99.90
12115;DHT22;6121;49.810;6.418;2023-01-29T02:15:11;0.60;99.90
12115;DHT22;6121;49.810;6.418;2023-01-29T02:17:38;0.50;99.90
12115;DHT22;6121;49.810;6.418;2023-01-29T02:20:14;0.50;99.90
12115;DHT22;6121;49.810;6.418;2023-01-29T02:31:34;0.60;99.90
12115;DHT22;6121;49.810;6.418;2023-01-29T02:37:06;0.50;99.90
12115;DHT22;6121;49.810;6.418;2023-01-29T02:39:39;0.60;99.90
12115;DHT22;6121;49.810;6.418;2023-01-29T02:42:22;0.60;99.90
12115;DHT22;6121;49.810;6.418;2023-01-29T02:47:35;0.50;99.90
12115;DHT22;6121;49.810;6.418;2023-01-29T02:50:20;0.70;99.90
12115;DHT22;6121;49.810;6.418;2023-01-29T02:52:59;0.80;99.90
12115;DHT22;6121;49.810;6.418;2023-01-29T02:58:08;0.80;99.90
12115;DHT22;6121;49.810;6.418;2023-01-29T03:00:40;0.60;99.90
12115;DHT22;6121;49.810;6.418;2023-01-29T03:03:17;0.60;99.90
12115;DHT22;6121;49.810;6.418;2023-01-29T03:06:12;0.50;99.90
12115;DHT22;6121;49.810;6.418;2023-01-29T03:08:50;0.70;99.90
12115;DHT22;6121;49.810;6.418;2023-01-29T03:11:19;0.70;99.90
12115;DHT22;6121;49.810;6.418;2023-01-29T03:16:38;0.40;99.90
12115;DHT22;6121;49.810;6.418;2023-01-29T03:19:12;0.50;99.90
12115;DHT22;6121;49.810;6.418;2023-01-29T03:21:57;0.70;99.90
12115;DHT22;6121;49.810;6.418;2023-01-29T03:27:55;0.60;99.90
12115;DHT22;6121;49.810;6.418;2023-01-29T03:31:04;0.50;99.90
12115;DHT22;6121;49.810;6.418;2023-01-29T03:34:14;0.60;99.90
12115;DHT22;6121;49.810;6.418;2023-01-29T03:36:52;0.60;99.90
12115;DHT22;6121;49.810;6.418;2023-01-29T03:39:21;0.40;99.90
12115;DHT22;6121;49.810;6.418;2023-01-29T03:41:57;0.10;99.90
12115;DHT22;6121;49.810;6.418;2023-01-29T03:44:39;0.10;99.90
12115;DHT22;6121;49.810;6.418;2023-01-29T03:47:16;0.30;99.90
12115;DHT22;6121;49.810;6.418;2023-01-29T03:55:52;0.30;99.90
12115;DHT22;6121;49.810;6.418;2023-01-29T03:58:46;0.20;99.90
12115;DHT22;6121;49.810;6.418;2023-01-29T04:01:35;0.40;99.90
12115;DHT22;6121;49.810;6.418;2023-01-29T04:04:15;0.60;99.90
12115;DHT22;6121;49.810;6.418;2023-01-29T04:06:44;0.50;99.90
12115;DHT22;6121;49.810;6.418;2023-01-29T04:12:06;0.10;99.90
12115;DHT22;6121;49.810;6.418;2023-01-29T04:14:35;0.30;99.90
12115;DHT22;6121;49.810;6.418;2023-01-29T04:17:22;0.40;99.90
12115;DHT22;6121;49.810;6.418;2023-01-29T04:20:02;0.30;99.90
12115;DHT22;6121;49.810;6.418;2023-01-29T04:22:32;0.30;99.90
12115;DHT22;6121;49.810;6.418;2023-01-29T04:25:02;0.40;99.90
12115;DHT22;6121;49.810;6.418;2023-01-29T04:30:49;0.20;99.90
12115;DHT22;6121;49.810;6.418;2023-01-29T04:36:22;0.10;99.90
12115;DHT22;6121;49.810;6.418;2023-01-29T04:42:09;0.00;99.90
12115;DHT22;6121;49.810;6.418;2023-01-29T04:47:53;0.20;99.90
12115;DHT22;6121;49.810;6.418;2023-01-29T04:56:39;0.30;99.90
12115;DHT22;6121;49.810;6.418;2023-01-29T04:59:10;0.50;99.90
12115;DHT22;6121;49.810;6.418;2023-01-29T05:01:38;0.60;99.90
12115;DHT22;6121;49.810;6.418;2023-01-29T05:04:09;0.50;99.90
12115;DHT22;6121;49.810;6.418;2023-01-29T05:06:37;0.50;99.90
12115;DHT22;6121;49.810;6.418;2023-01-29T05:09:03;0.60;99.90
12115;DHT22;6121;49.810;6.418;2023-01-29T05:11:31;0.50;99.90
12115;DHT22;6121;49.810;6.418;2023-01-29T05:13:58;0.40;99.90
12115;DHT22;6121;49.810;6.418;2023-01-29T05:16:30;0.40;99.90
12115;DHT22;6121;49.810;6.418;2023-01-29T05:19:09;0.40;99.90
12115;DHT22;6121;49.810;6.418;2023-01-29T05:21:36;0.30;99.90
12115;DHT22;6121;49.810;6.418;2023-01-29T05:24:29;0.40;99.90
12115;DHT22;6121;49.810;6.418;2023-01-29T05:26:53;0.20;99.90
12115;DHT22;6121;49.810;6.418;2023-01-29T05:29:42;0.20;99.90
12115;DHT22;6121;49.810;6.418;2023-01-29T05:32:09;0.30;99.90
12115;DHT22;6121;49.810;6.418;2023-01-29T05:34:35;0.20;99.90
12115;DHT22;6121;49.810;6.418;2023-01-29T05:37:01;0.00;99.90
12115;DHT22;6121;49.810;6.418;2023-01-29T05:39:27;0.00;99.90
12115;DHT22;6121;49.810;6.418;2023-01-29T05:41:53;0.10;99.90
12115;DHT22;6121;49.810;6.418;2023-01-29T05:44:19;0.10;99.90
12115;DHT22;6121;49.810;6.418;2023-01-29T05:46:45;0.10;99.90
12115;DHT22;6121;49.810;6.418;2023-01-29T05:49:11;0.00;99.90
12115;DHT22;6121;49.810;6.418;2023-01-29T05:51:37;-0.10;99.90
12115;DHT22;6121;49.810;6.418;2023-01-29T05:54:03;0.10;99.90
12115;DHT22;6121;49.810;6.418;2023-01-29T05:56:29;0.10;99.90
12115;DHT22;6121;49.810;6.418;2023-01-29T05:58:55;0.30;99.90
12115;DHT22;6121;49.810;6.418;2023-01-29T06:01:23;0.20;99.90
12115;DHT22;6121;49.810;6.418;2023-01-29T06:03:50;0.40;99.90
12115;DHT22;6121;49.810;6.418;2023-01-29T06:06:16;0.30;99.90
12115;DHT22;6121;49.810;6.418;2023-01-29T06:08:42;0.10;99.90
12115;DHT22;6121;49.810;6.418;2023-01-29T06:11:11;0.10;99.90
12115;DHT22;6121;49.810;6.418;2023-01-29T06:13:37;0.20;99.90
12115;DHT22;6121;49.810;6.418;2023-01-29T06:16:04;0.30;99.90
12115;DHT22;6121;49.810;6.418;2023-01-29T06:18:31;0.20;99.90
12115;DHT22;6121;49.810;6.418;2023-01-29T06:21:01;0.00;99.90
12115;DHT22;6121;49.810;6.418;2023-01-29T06:23:28;0.10;99.90
12115;DHT22;6121;49.810;6.418;2023-01-29T06:26:09;0.20;99.90
12115;DHT22;6121;49.810;6.418;2023-01-29T06:28:35;0.30;99.90
12115;DHT22;6121;49.810;6.418;2023-01-29T06:31:02;0.00;99.90
12115;DHT22;6121;49.810;6.418;2023-01-29T06:33:29;0.10;99.90
12115;DHT22;6121;49.810;6.418;2023-01-29T06:35:56;0.00;99.90
12115;DHT22;6121;49.810;6.418;2023-01-29T06:38:22;-0.10;99.90
12115;DHT22;6121;49.810;6.418;2023-01-29T06:40:48;0.00;99.90
12115;DHT22;6121;49.810;6.418;2023-01-29T06:43:14;0.00;99.90
12115;DHT22;6121;49.810;6.418;2023-01-29T06:46:07;0.10;99.90
12115;DHT22;6121;49.810;6.418;2023-01-29T06:48:33;0.00;99.90
12115;DHT22;6121;49.810;6.418;2023-01-29T06:51:04;0.00;99.90
12115;DHT22;6121;49.810;6.418;2023-01-29T06:53:30;0.00;99.90
12115;DHT22;6121;49.810;6.418;2023-01-29T06:55:56;0.00;99.90
12115;DHT22;6121;49.810;6.418;2023-01-29T06:58:22;0.10;99.90
12115;DHT22;6121;49.810;6.418;2023-01-29T07:00:48;0.20;99.90
12115;DHT22;6121;49.810;6.418;2023-01-29T07:03:14;0.10;99.90
12115;DHT22;6121;49.810;6.418;2023-01-29T07:05:40;0.10;99.90
12115;DHT22;6121;49.810;6.418;2023-01-29T07:08:05;0.20;99.90
12115;DHT22;6121;49.810;6.418;2023-01-29T07:10:31;0.00;99.90
12115;DHT22;6121;49.810;6.418;2023-01-29T07:12:58;0.10;99.90
12115;DHT22;6121;49.810;6.418;2023-01-29T07:15:25;0.10;99.90
12115;DHT22;6121;49.810;6.418;2023-01-29T07:18:04;0.10;99.90
12115;DHT22;6121;49.810;6.418;2023-01-29T07:20:38;0.00;99.90
12115;DHT22;6121;49.810;6.418;2023-01-29T07:23:06;-0.10;99.90
12115;DHT22;6121;49.810;6.418;2023-01-29T07:25:33;0.00;99.90
12115;DHT22;6121;49.810;6.418;2023-01-29T07:28:00;-0.10;99.90
12115;DHT22;6121;49.810;6.418;2023-01-29T07:30:26;-0.10;99.90
12115;DHT22;6121;49.810;6.418;2023-01-29T07:32:52;-0.20;99.90
12115;DHT22;6121;49.810;6.418;2023-01-29T07:35:18;0.00;99.90
12115;DHT22;6121;49.810;6.418;2023-01-29T07:37:48;-0.10;99.90
12115;DHT22;6121;49.810;6.418;2023-01-29T07:40:14;-0.10;99.90
12115;DHT22;6121;49.810;6.418;2023-01-29T07:42:40;-0.20;99.90
12115;DHT22;6121;49.810;6.418;2023-01-29T07:45:09;0.00;99.90
12115;DHT22;6121;49.810;6.418;2023-01-29T07:47:35;0.00;99.90
12115;DHT22;6121;49.810;6.418;2023-01-29T07:50:02;0.00;99.90
12115;DHT22;6121;49.810;6.418;2023-01-29T07:52:29;0.00;99.90
12115;DHT22;6121;49.810;6.418;2023-01-29T07:54:55;0.00;99.90
12115;DHT22;6121;49.810;6.418;2023-01-29T07:57:22;0.10;99.90
12115;DHT22;6121;49.810;6.418;2023-01-29T07:59:48;0.10;99.90
12115;DHT22;6121;49.810;6.418;2023-01-29T08:02:15;0.10;99.90
12115;DHT22;6121;49.810;6.418;2023-01-29T08:04:41;0.20;99.90
12115;DHT22;6121;49.810;6.418;2023-01-29T08:07:07;0.10;99.90
12115;DHT22;6121;49.810;6.418;2023-01-29T08:09:34;0.20;99.90
12115;DHT22;6121;49.810;6.418;2023-01-29T08:12:01;0.20;99.90
12115;DHT22;6121;49.810;6.418;2023-01-29T08:14:27;0.20;99.90
12115;DHT22;6121;49.810;6.418;2023-01-29T08:16:52;-0.10;99.90
12115;DHT22;6121;49.810;6.418;2023-01-29T08:19:20;-0.10;99.90
12115;DHT22;6121;49.810;6.418;2023-01-29T08:21:46;0.00;99.90
12115;DHT22;6121;49.810;6.418;2023-01-29T08:24:12;0.00;99.90
12115;DHT22;6121;49.810;6.418;2023-01-29T08:26:38;0.20;99.90
12115;DHT22;6121;49.810;6.418;2023-01-29T08:29:03;0.20;99.90
12115;DHT22;6121;49.810;6.418;2023-01-29T08:31:29;0.20;99.90
12115;DHT22;6121;49.810;6.418;2023-01-29T08:33:55;0.00;99.90
12115;DHT22;6121;49.810;6.418;2023-01-29T08:36:21;0.10;99.90
12115;DHT22;6121;49.810;6.418;2023-01-29T08:38:47;0.30;99.90
12115;DHT22;6121;49.810;6.418;2023-01-29T08:41:13;0.20;99.90
12115;DHT22;6121;49.810;6.418;2023-01-29T08:43:38;0.20;99.90
12115;DHT22;6121;49.810;6.418;2023-01-29T08:46:06;0.00;99.90
12115;DHT22;6121;49.810;6.418;2023-01-29T08:48:32;-0.10;99.90
12115;DHT22;6121;49.810;6.418;2023-01-29T08:50:59;0.00;99.90
12115;DHT22;6121;49.810;6.418;2023-01-29T08:53:27;0.10;99.90
12115;DHT22;6121;49.810;6.418;2023-01-29T08:55:53;0.10;99.90
12115;DHT22;6121;49.810;6.418;2023-01-29T08:58:19;-0.10;99.90
12115;DHT22;6121;49.810;6.418;2023-01-29T09:00:46;-0.20;99.90
12115;DHT22;6121;49.810;6.418;2023-01-29T09:03:12;-0.20;99.90
12115;DHT22;6121;49.810;6.418;2023-01-29T09:05:39;-0.30;99.90
12115;DHT22;6121;49.810;6.418;2023-01-29T09:08:07;-0.40;99.90
12115;DHT22;6121;49.810;6.418;2023-01-29T09:10:33;-0.30;99.90
12115;DHT22;6121;49.810;6.418;2023-01-29T09:12:59;-0.20;99.90
12115;DHT22;6121;49.810;6.418;2023-01-29T09:15:25;-0.30;99.90
12115;DHT22;6121;49.810;6.418;2023-01-29T09:17:51;-0.10;99.90
12115;DHT22;6121;49.810;6.418;2023-01-29T09:20:18;-0.10;99.90
12115;DHT22;6121;49.810;6.418;2023-01-29T09:22:45;0.00;99.90
12115;DHT22;6121;49.810;6.418;2023-01-29T09:25:11;-0.20;99.90
12115;DHT22;6121;49.810;6.418;2023-01-29T09:27:37;-0.30;99.90
12115;DHT22;6121;49.810;6.418;2023-01-29T09:30:04;-0.10;99.90
12115;DHT22;6121;49.810;6.418;2023-01-29T09:32:30;-0.10;99.90
12115;DHT22;6121;49.810;6.418;2023-01-29T09:34:57;-0.10;99.90
12115;DHT22;6121;49.810;6.418;2023-01-29T09:37:23;-0.10;99.90
12115;DHT22;6121;49.810;6.418;2023-01-29T09:39:49;0.10;99.90
12115;DHT22;6121;49.810;6.418;2023-01-29T09:42:36;0.10;99.90
12115;DHT22;6121;49.810;6.418;2023-01-29T09:45:22;0.00;99.90
12115;DHT22;6121;49.810;6.418;2023-01-29T09:47:54;0.10;99.90
12115;DHT22;6121;49.810;6.418;2023-01-29T09:50:36;0.20;99.90
12115;DHT22;6121;49.810;6.418;2023-01-29T09:55:42;0.40;99.90
12115;DHT22;6121;49.810;6.418;2023-01-29T09:58:26;0.40;99.90
12115;DHT22;6121;49.810;6.418;2023-01-29T10:01:02;0.60;99.90
12115;DHT22;6121;49.810;6.418;2023-01-29T10:09:55;0.60;99.90
12115;DHT22;6121;49.810;6.418;2023-01-29T10:12:42;0.90;99.90
12115;DHT22;6121;49.810;6.418;2023-01-29T10:18:03;0.90;99.90
12115;DHT22;6121;49.810;6.418;2023-01-29T10:23:26;1.30;99.90
12115;DHT22;6121;49.810;6.418;2023-01-29T10:25:53;1.80;99.90
12115;DHT22;6121;49.810;6.418;2023-01-29T10:28:43;2.00;99.90
12115;DHT22;6121;49.810;6.418;2023-01-29T10:34:00;2.20;99.90
12115;DHT22;6121;49.810;6.418;2023-01-29T10:36:45;2.20;99.90
12115;DHT22;6121;49.810;6.418;2023-01-29T10:39:16;1.90;99.90
12115;DHT22;6121;49.810;6.418;2023-01-29T10:50:39;2.30;99.90
12115;DHT22;6121;49.810;6.418;2023-01-29T10:53:24;2.50;99.90
12115;DHT22;6121;49.810;6.418;2023-01-29T10:58:25;2.00;99.90
12115;DHT22;6121;49.810;6.418;2023-01-29T11:00:54;2.00;99.90
12115;DHT22;6121;49.810;6.418;2023-01-29T11:03:25;2.60;99.90
12115;DHT22;6121;49.810;6.418;2023-01-29T11:06:22;2.20;99.90
12115;DHT22;6121;49.810;6.418;2023-01-29T11:14:04;2.30;99.90
12115;DHT22;6121;49.810;6.418;2023-01-29T11:16:46;2.10;99.90
12115;DHT22;6121;49.810;6.418;2023-01-29T11:19:12;2.10;99.90
12115;DHT22;6121;49.810;6.418;2023-01-29T11:21:59;2.10;99.90
12115;DHT22;6121;49.810;6.418;2023-01-29T11:24:26;2.10;99.90
12115;DHT22;6121;49.810;6.418;2023-01-29T11:26:57;2.10;99.90
12115;DHT22;6121;49.810;6.418;2023-01-29T11:29:48;2.30;99.90
12115;DHT22;6121;49.810;6.418;2023-01-29T11:35:20;2.10;99.90
12115;DHT22;6121;49.810;6.418;2023-01-29T11:37:47;2.10;99.90
12115;DHT22;6121;49.810;6.418;2023-01-29T11:42:52;2.90;99.90
12115;DHT22;6121;49.810;6.418;2023-01-29T11:45:30;3.20;99.90
12115;DHT22;6121;49.810;6.418;2023-01-29T11:47:58;3.20;99.90
12115;DHT22;6121;49.810;6.418;2023-01-29T11:50:29;3.20;99.90
12115;DHT22;6121;49.810;6.418;2023-01-29T11:52:58;4.00;99.90
12115;DHT22;6121;49.810;6.418;2023-01-29T11:55:30;4.90;99.90
12115;DHT22;6121;49.810;6.418;2023-01-29T11:58:10;4.70;99.90
12115;DHT22;6121;49.810;6.418;2023-01-29T12:00:39;4.30;99.90
12115;DHT22;6121;49.810;6.418;2023-01-29T12:05:37;4.90;99.90
12115;DHT22;6121;49.810;6.418;2023-01-29T12:08:14;5.40;99.90
12115;DHT22;6121;49.810;6.418;2023-01-29T12:10:41;6.20;99.40
12115;DHT22;6121;49.810;6.418;2023-01-29T12:15:37;5.90;99.10
12115;DHT22;6121;49.810;6.418;2023-01-29T12:18:26;5.70;99.00
12115;DHT22;6121;49.810;6.418;2023-01-29T12:21:01;6.30;98.70
12115;DHT22;6121;49.810;6.418;2023-01-29T12:23:49;6.50;97.80
12115;DHT22;6121;49.810;6.418;2023-01-29T12:26:25;6.40;98.20
12115;DHT22;6121;49.810;6.418;2023-01-29T12:31:45;6.10;98.40
12115;DHT22;6121;49.810;6.418;2023-01-29T12:34:22;6.20;98.20
12115;DHT22;6121;49.810;6.418;2023-01-29T12:36:58;6.10;98.20
12115;DHT22;6121;49.810;6.418;2023-01-29T12:39:24;6.20;98.20
12115;DHT22;6121;49.810;6.418;2023-01-29T12:42:23;6.00;97.70
12115;DHT22;6121;49.810;6.418;2023-01-29T12:44:56;5.80;98.50
12115;DHT22;6121;49.810;6.418;2023-01-29T12:50:02;5.30;98.30
12115;DHT22;6121;49.810;6.418;2023-01-29T12:52:39;5.20;98.90
12115;DHT22;6121;49.810;6.418;2023-01-29T12:55:21;5.20;99.20
12115;DHT22;6121;49.810;6.418;2023-01-29T12:58:01;5.30;98.60
12115;DHT22;6121;49.810;6.418;2023-01-29T13:00:33;5.10;99.20
12115;DHT22;6121;49.810;6.418;2023-01-29T13:03:00;4.90;99.00
12115;DHT22;6121;49.810;6.418;2023-01-29T13:10:54;4.70;99.40
12115;DHT22;6121;49.810;6.418;2023-01-29T13:15:56;4.80;99.10
12115;DHT22;6121;49.810;6.418;2023-01-29T13:18:45;4.80;99.40
12115;DHT22;6121;49.810;6.418;2023-01-29T13:21:16;4.80;99.50
12115;DHT22;6121;49.810;6.418;2023-01-29T13:23:47;4.70;99.60
12115;DHT22;6121;49.810;6.418;2023-01-29T13:26:17;4.80;99.40
12115;DHT22;6121;49.810;6.418;2023-01-29T13:28:44;4.60;99.40
12115;DHT22;6121;49.810;6.418;2023-01-29T13:31:26;4.20;99.30
12115;DHT22;6121;49.810;6.418;2023-01-29T13:36:41;4.10;99.70
12115;DHT22;6121;49.810;6.418;2023-01-29T13:39:21;4.20;99.90
12115;DHT22;6121;49.810;6.418;2023-01-29T13:41:50;4.10;99.90
12115;DHT22;6121;49.810;6.418;2023-01-29T13:44:27;4.20;99.90
12115;DHT22;6121;49.810;6.418;2023-01-29T13:46:59;4.10;99.90
12115;DHT22;6121;49.810;6.418;2023-01-29T13:52:34;4.00;99.90
12115;DHT22;6121;49.810;6.418;2023-01-29T13:55:04;4.10;99.90
12115;DHT22;6121;49.810;6.418;2023-01-29T14:05:40;3.80;99.90
12115;DHT22;6121;49.810;6.418;2023-01-29T14:10:36;3.60;99.90
12115;DHT22;6121;49.810;6.418;2023-01-29T14:15:32;3.80;99.90
12115;DHT22;6121;49.810;6.418;2023-01-29T14:20:39;3.40;99.90
12115;DHT22;6121;49.810;6.418;2023-01-29T14:25:48;3.20;99.90
12115;DHT22;6121;49.810;6.418;2023-01-29T14:28:20;3.30;99.90
12115;DHT22;6121;49.810;6.418;2023-01-29T14:30:47;3.20;99.90
12115;DHT22;6121;49.810;6.418;2023-01-29T14:35:49;3.40;99.90
12115;DHT22;6121;49.810;6.418;2023-01-29T14:38:17;3.50;99.90
12115;DHT22;6121;49.810;6.418;2023-01-29T14:40:45;3.70;99.90
12115;DHT22;6121;49.810;6.418;2023-01-29T14:43:20;3.50;99.90
12115;DHT22;6121;49.810;6.418;2023-01-29T14:45:48;3.50;99.90
12115;DHT22;6121;49.810;6.418;2023-01-29T14:48:52;3.40;99.90
12115;DHT22;6121;49.810;6.418;2023-01-29T14:51:19;3.20;99.90
12115;DHT22;6121;49.810;6.418;2023-01-29T14:56:56;3.40;99.90
12115;DHT22;6121;49.810;6.418;2023-01-29T14:59:43;3.30;99.90
12115;DHT22;6121;49.810;6.418;2023-01-29T15:02:21;3.00;99.90
12115;DHT22;6121;49.810;6.418;2023-01-29T15:04:50;3.10;99.90
12115;DHT22;6121;49.810;6.418;2023-01-29T15:07:36;3.10;99.90
12115;DHT22;6121;49.810;6.418;2023-01-29T15:10:18;3.00;99.90
12115;DHT22;6121;49.810;6.418;2023-01-29T15:12:54;3.00;99.90
12115;DHT22;6121;49.810;6.418;2023-01-29T15:15:50;3.00;99.90
12115;DHT22;6121;49.810;6.418;2023-01-29T15:21:18;2.70;99.90
12115;DHT22;6121;49.810;6.418;2023-01-29T15:23:45;2.90;99.90
12115;DHT22;6121;49.810;6.418;2023-01-29T15:26:19;2.80;99.90
12115;DHT22;6121;49.810;6.418;2023-01-29T15:28:57;3.00;99.90
12115;DHT22;6121;49.810;6.418;2023-01-29T15:31:23;2.90;99.90
12115;DHT22;6121;49.810;6.418;2023-01-29T15:33:51;2.70;99.90
12115;DHT22;6121;49.810;6.418;2023-01-29T15:36:21;2.70;99.90
12115;DHT22;6121;49.810;6.418;2023-01-29T15:38:47;2.70;99.90
12115;DHT22;6121;49.810;6.418;2023-01-29T15:41:18;2.40;99.90
12115;DHT22;6121;49.810;6.418;2023-01-29T15:43:47;2.40;99.90
12115;DHT22;6121;49.810;6.418;2023-01-29T15:46:32;2.40;99.90
12115;DHT22;6121;49.810;6.418;2023-01-29T15:49:05;2.60;99.90
12115;DHT22;6121;49.810;6.418;2023-01-29T15:51:31;2.40;99.90
12115;DHT22;6121;49.810;6.418;2023-01-29T15:54:00;2.30;99.90
12115;DHT22;6121;49.810;6.418;2023-01-29T15:56:33;2.30;99.90
12115;DHT22;6121;49.810;6.418;2023-01-29T15:59:03;2.30;99.90
12115;DHT22;6121;49.810;6.418;2023-01-29T16:01:30;2.30;99.90
12115;DHT22;6121;49.810;6.418;2023-01-29T16:03:57;2.50;99.90
12115;DHT22;6121;49.810;6.418;2023-01-29T16:06:29;2.30;99.90
12115;DHT22;6121;49.810;6.418;2023-01-29T16:08:58;2.40;99.90
12115;DHT22;6121;49.810;6.418;2023-01-29T16:11:24;2.50;99.90
12115;DHT22;6121;49.810;6.418;2023-01-29T16:13:51;2.40;99.90
12115;DHT22;6121;49.810;6.418;2023-01-29T16:16:22;2.30;99.90
12115;DHT22;6121;49.810;6.418;2023-01-29T16:18:49;2.30;99.90
12115;DHT22;6121;49.810;6.418;2023-01-29T16:24:14;2.20;99.90
12115;DHT22;6121;49.810;6.418;2023-01-29T16:26:46;2.40;99.90
12115;DHT22;6121;49.810;6.418;2023-01-29T16:29:21;1.70;99.90
12115;DHT22;6121;49.810;6.418;2023-01-29T16:31:50;1.80;99.90
12115;DHT22;6121;49.810;6.418;2023-01-29T16:36:54;1.90;99.90
12115;DHT22;6121;49.810;6.418;2023-01-29T16:39:33;1.90;99.90
12115;DHT22;6121;49.810;6.418;2023-01-29T16:42:20;1.70;99.90
12115;DHT22;6121;49.810;6.418;2023-01-29T16:47:29;1.90;99.90
12115;DHT22;6121;49.810;6.418;2023-01-29T16:50:01;1.70;99.90
12115;DHT22;6121;49.810;6.418;2023-01-29T16:52:32;1.70;99.90
12115;DHT22;6121;49.810;6.418;2023-01-29T16:55:02;1.50;99.90
12115;DHT22;6121;49.810;6.418;2023-01-29T16:57:39;1.50;99.90
12115;DHT22;6121;49.810;6.418;2023-01-29T17:00:07;1.50;99.90
12115;DHT22;6121;49.810;6.418;2023-01-29T17:02:38;1.40;99.90
12115;DHT22;6121;49.810;6.418;2023-01-29T17:05:08;1.30;99.90
12115;DHT22;6121;49.810;6.418;2023-01-29T17:07:35;1.20;99.90
12115;DHT22;6121;49.810;6.418;2023-01-29T17:10:04;1.20;99.90
12115;DHT22;6121;49.810;6.418;2023-01-29T17:12:31;1.40;99.90
12115;DHT22;6121;49.810;6.418;2023-01-29T17:15:00;1.40;99.90
12115;DHT22;6121;49.810;6.418;2023-01-29T17:17:32;1.20;99.90
12115;DHT22;6121;49.810;6.418;2023-01-29T17:20:09;1.10;99.90
12115;DHT22;6121;49.810;6.418;2023-01-29T17:22:56;0.90;99.90
12115;DHT22;6121;49.810;6.418;2023-01-29T17:25:21;0.80;99.90
12115;DHT22;6121;49.810;6.418;2023-01-29T17:27:48;0.70;99.90
12115;DHT22;6121;49.810;6.418;2023-01-29T17:30:18;0.70;99.90
12115;DHT22;6121;49.810;6.418;2023-01-29T17:32:44;0.80;99.90
12115;DHT22;6121;49.810;6.418;2023-01-29T17:35:14;0.80;99.90
12115;DHT22;6121;49.810;6.418;2023-01-29T17:37:40;0.70;99.90
12115;DHT22;6121;49.810;6.418;2023-01-29T17:40:27;0.70;99.90
12115;DHT22;6121;49.810;6.418;2023-01-29T17:42:55;0.90;99.90
12115;DHT22;6121;49.810;6.418;2023-01-29T17:45:20;0.60;99.90
12115;DHT22;6121;49.810;6.418;2023-01-29T17:47:46;0.80;99.90
12115;DHT22;6121;49.810;6.418;2023-01-29T17:50:20;0.90;99.90
12115;DHT22;6121;49.810;6.418;2023-01-29T17:52:47;0.90;99.90
12115;DHT22;6121;49.810;6.418;2023-01-29T17:55:13;0.80;99.90
12115;DHT22;6121;49.810;6.418;2023-01-29T17:57:39;0.80;99.90
12115;DHT22;6121;49.810;6.418;2023-01-29T18:00:19;0.90;99.90
12115;DHT22;6121;49.810;6.418;2023-01-29T18:02:46;1.00;99.90
12115;DHT22;6121;49.810;6.418;2023-01-29T18:05:13;1.00;99.90
12115;DHT22;6121;49.810;6.418;2023-01-29T18:07:40;1.00;99.90
12115;DHT22;6121;49.810;6.418;2023-01-29T18:10:17;1.00;99.90
12115;DHT22;6121;49.810;6.418;2023-01-29T18:12:43;1.10;99.90
12115;DHT22;6121;49.810;6.418;2023-01-29T18:15:09;1.10;99.90
12115;DHT22;6121;49.810;6.418;2023-01-29T18:17:36;1.30;99.90
12115;DHT22;6121;49.810;6.418;2023-01-29T18:20:02;1.30;99.90
12115;DHT22;6121;49.810;6.418;2023-01-29T18:22:28;1.30;99.90
12115;DHT22;6121;49.810;6.418;2023-01-29T18:24:54;1.40;99.90
12115;DHT22;6121;49.810;6.418;2023-01-29T18:27:20;1.40;99.90
12115;DHT22;6121;49.810;6.418;2023-01-29T18:29:46;1.40;99.90
12115;DHT22;6121;49.810;6.418;2023-01-29T18:32:14;1.40;99.90
12115;DHT22;6121;49.810;6.418;2023-01-29T18:34:40;1.30;99.90
12115;DHT22;6121;49.810;6.418;2023-01-29T18:37:06;1.30;99.90
12115;DHT22;6121;49.810;6.418;2023-01-29T18:39:32;1.50;99.90
12115;DHT22;6121;49.810;6.418;2023-01-29T18:41:58;1.10;99.90
12115;DHT22;6121;49.810;6.418;2023-01-29T18:44:23;1.30;99.90
12115;DHT22;6121;49.810;6.418;2023-01-29T18:46:49;1.20;99.90
12115;DHT22;6121;49.810;6.418;2023-01-29T18:49:15;1.20;99.90
12115;DHT22;6121;49.810;6.418;2023-01-29T18:51:41;1.40;99.90
12115;DHT22;6121;49.810;6.418;2023-01-29T18:54:10;1.40;99.90